Time;durP1;ratioP1;P1;durP2;ratioP2;P2;SDS_P1;SDS_P2;PMS_P1;PMS_P2;Temp;Humidity;BMP_temperature;BMP_pressure;BME280_temperature;BME280_humidity;BME280_pressure;Samples;Min_cycle;Max_cycle;Signal;HPM_P1;HPM_P2
2023/04/01 08:08:37;;;;;;;0.20;0.20;;;;;;;;;;7350729;19;20192;-96
2023/04/01 12:02:45;;;;;;;0.30;0.30;;;;;;;;;;7400622;19;20152;-91
2023/04/01 12:05:24;;;;;;;0.30;0.30;;;;;;;;;;7398649;19;20137;-91
2023/04/01 12:08:09;;;;;;;0.30;0.30;;;;;;;;;;7397525;19;20137;-90
2023/04/01 12:11:06;;;;;;;0.20;0.20;;;;;;;;;;7394762;19;20149;-92
2023/04/01 12:13:45;;;;;;;0.30;0.30;;;;;;;;;;7396036;19;20137;-92
2023/04/01 12:16:21;;;;;;;0.30;0.30;;;;;;;;;;7398112;19;20137;-91
2023/04/01 12:19:11;;;;;;;0.30;0.30;;;;;;;;;;7401143;19;20137;-90
2023/04/01 12:21:53;;;;;;;0.30;0.30;;;;;;;;;;7397574;19;20171;-90
2023/04/01 12:24:29;;;;;;;0.30;0.30;;;;;;;;;;7400283;19;20136;-89
2023/04/01 12:27:03;;;;;;;0.40;0.40;;;;;;;;;;7401499;19;20180;-90
2023/04/01 12:29:57;;;;;;;0.50;0.50;;;;;;;;;;7404224;19;20478;-90
2023/04/01 12:32:42;;;;;;;0.30;0.30;;;;;;;;;;7402185;19;20141;-91
2023/04/01 12:35:30;;;;;;;0.23;0.23;;;;;;;;;;7400738;19;20129;-92
2023/04/01 12:38:36;;;;;;;0.30;0.30;;;;;;;;;;7406288;19;20221;-92
2023/04/01 12:41:10;;;;;;;0.30;0.30;;;;;;;;;;7400405;19;20161;-92
2023/04/01 12:44:15;;;;;;;0.30;0.30;;;;;;;;;;7396754;19;20177;-91
2023/04/01 12:47:12;;;;;;;0.30;0.30;;;;;;;;;;7395335;19;20177;-91
2023/04/01 12:49:45;;;;;;;0.30;0.30;;;;;;;;;;7393657;19;20160;-90
2023/04/01 12:52:15;;;;;;;0.30;0.30;;;;;;;;;;7394660;19;20133;-87
2023/04/01 12:55:00;;;;;;;0.30;0.30;;;;;;;;;;7393668;19;20597;-88
2023/04/01 12:57:57;;;;;;;0.30;0.30;;;;;;;;;;7411765;19;20144;-85
2023/04/01 13:00:27;;;;;;;0.30;0.30;;;;;;;;;;7397798;19;20172;-88
2023/04/01 13:03:11;;;;;;;0.30;0.30;;;;;;;;;;7397436;19;20503;-88
2023/04/01 13:05:47;;;;;;;0.30;0.30;;;;;;;;;;7393839;19;20137;-86
2023/04/01 13:08:22;;;;;;;0.30;0.30;;;;;;;;;;7394876;19;20137;-88
2023/04/01 13:11:17;;;;;;;0.22;0.22;;;;;;;;;;7399029;19;20160;-89
2023/04/01 13:14:07;;;;;;;3.95;0.70;;;;;;;;;;7397566;19;20152;-86
2023/04/01 13:17:09;;;;;;;0.30;0.30;;;;;;;;;;7421602;19;20157;-88
2023/04/01 13:19:40;;;;;;;0.30;0.30;;;;;;;;;;7415524;19;20160;-88
2023/04/01 13:22:34;;;;;;;0.30;0.30;;;;;;;;;;7418325;19;20136;-87
2023/04/01 13:25:38;;;;;;;0.30;0.30;;;;;;;;;;7413550;19;20128;-90
2023/04/01 13:28:25;;;;;;;0.30;0.30;;;;;;;;;;7397280;19;20145;-89
2023/04/01 13:31:03;;;;;;;0.30;0.30;;;;;;;;;;7392396;19;20172;-90
2023/04/01 13:33:44;;;;;;;0.30;0.30;;;;;;;;;;7391923;19;20153;-90
2023/04/01 13:36:18;;;;;;;0.30;0.30;;;;;;;;;;7393975;19;20688;-90
2023/04/01 13:39:03;;;;;;;0.30;0.30;;;;;;;;;;7391181;19;20164;-90
2023/04/01 13:41:38;;;;;;;0.20;0.20;;;;;;;;;;7390209;19;20192;-90
2023/04/01 13:44:26;;;;;;;0.30;0.30;;;;;;;;;;7393540;19;20141;-90
2023/04/01 13:47:18;;;;;;;0.30;0.30;;;;;;;;;;7391060;19;20605;-89
2023/04/01 13:49:57;;;;;;;0.30;0.30;;;;;;;;;;7391500;19;20157;-90
2023/04/01 13:53:06;;;;;;;0.30;0.30;;;;;;;;;;7390769;19;20124;-88
2023/04/01 13:55:51;;;;;;;0.20;0.20;;;;;;;;;;7392097;19;20157;-90
2023/04/01 13:58:30;;;;;;;0.30;0.30;;;;;;;;;;7389131;19;20140;-90
2023/04/01 14:01:12;;;;;;;0.50;0.50;;;;;;;;;;7390731;19;20280;-90
2023/04/01 14:03:58;;;;;;;0.27;0.27;;;;;;;;;;7390776;19;20547;-90
2023/04/01 14:06:44;;;;;;;0.30;0.30;;;;;;;;;;7393119;19;20145;-90
2023/04/01 14:09:22;;;;;;;0.30;0.30;;;;;;;;;;7392318;19;20156;-90
2023/04/01 14:12:33;;;;;;;0.30;0.30;;;;;;;;;;7394238;19;20490;-88
2023/04/01 14:15:21;;;;;;;0.30;0.30;;;;;;;;;;7389634;19;20137;-90
2023/04/01 14:18:10;;;;;;;0.30;0.30;;;;;;;;;;7388315;19;20211;-91
2023/04/01 14:21:08;;;;;;;0.30;0.30;;;;;;;;;;7389510;19;20171;-89
2023/04/01 14:23:56;;;;;;;0.33;0.33;;;;;;;;;;7391160;19;20161;-91
2023/04/01 14:26:29;;;;;;;0.30;0.30;;;;;;;;;;7388970;19;20614;-89
2023/04/01 14:29:27;;;;;;;0.30;0.30;;;;;;;;;;7397042;19;20152;-89
2023/04/01 14:32:27;;;;;;;0.30;0.30;;;;;;;;;;7397569;19;20602;-89
2023/04/01 14:35:05;;;;;;;0.30;0.30;;;;;;;;;;7395338;19;20137;-92
2023/04/01 14:37:54;;;;;;;0.67;0.67;;;;;;;;;;7390013;19;20176;-92
2023/04/01 14:40:52;;;;;;;0.30;0.30;;;;;;;;;;7395772;19;20179;-93
2023/04/01 14:43:33;;;;;;;0.27;0.27;;;;;;;;;;7389939;19;20141;-92
2023/04/01 14:46:29;;;;;;;0.30;0.30;;;;;;;;;;7390660;19;20532;-92
2023/04/01 14:48:58;;;;;;;0.30;0.30;;;;;;;;;;7391979;19;20137;-92
2023/04/01 14:51:27;;;;;;;0.30;0.30;;;;;;;;;;7392036;19;20149;-92
2023/04/01 15:24:25;;;;;;;0.97;0.83;;;;;;;;;;7403551;19;20153;-88
2023/04/01 15:26:59;;;;;;;0.30;0.30;;;;;;;;;;7397570;19;20168;-89
2023/04/01 15:29:26;;;;;;;0.20;0.20;;;;;;;;;;7399170;19;20161;-89
2023/04/01 15:32:04;;;;;;;0.33;0.33;;;;;;;;;;7400797;19;20141;-89
2023/04/01 15:35:03;;;;;;;0.30;0.30;;;;;;;;;;7402170;19;20156;-88
2023/04/01 15:37:55;;;;;;;0.30;0.30;;;;;;;;;;7399975;19;20176;-88
2023/04/01 15:40:27;;;;;;;0.30;0.30;;;;;;;;;;7402495;19;20945;-90
2023/04/01 15:43:24;;;;;;;0.30;0.30;;;;;;;;;;7401216;19;20176;-89
2023/04/01 15:46:19;;;;;;;0.30;0.30;;;;;;;;;;7400761;19;20468;-88
2023/04/01 15:48:55;;;;;;;0.30;0.30;;;;;;;;;;7402069;19;20152;-89
2023/04/01 15:51:40;;;;;;;0.40;0.40;;;;;;;;;;7401571;19;20175;-89
2023/04/01 15:55:02;;;;;;;0.30;0.30;;;;;;;;;;7403576;19;20140;-89
2023/04/01 15:57:39;;;;;;;0.30;0.30;;;;;;;;;;7390227;19;20161;-91
2023/04/01 16:00:14;;;;;;;0.30;0.30;;;;;;;;;;7401489;19;20157;-87
2023/04/01 16:02:46;;;;;;;0.33;0.33;;;;;;;;;;7403875;19;20137;-90
2023/04/01 16:05:37;;;;;;;0.30;0.30;;;;;;;;;;7401621;19;20136;-89
2023/04/01 16:08:22;;;;;;;0.30;0.30;;;;;;;;;;7401272;19;20136;-88
2023/04/01 16:11:15;;;;;;;0.30;0.30;;;;;;;;;;7402008;19;20208;-89
2023/04/01 16:13:48;;;;;;;0.30;0.30;;;;;;;;;;7397574;19;20392;-89
2023/04/01 16:16:51;;;;;;;0.30;0.30;;;;;;;;;;7400028;19;20136;-91
2023/04/01 16:19:31;;;;;;;0.20;0.20;;;;;;;;;;7400948;19;20153;-88
2023/04/01 16:22:02;;;;;;;0.20;0.20;;;;;;;;;;7400754;19;20140;-91
2023/04/01 16:24:46;;;;;;;0.30;0.30;;;;;;;;;;7397407;19;20606;-91
2023/04/01 16:27:39;;;;;;;0.27;0.27;;;;;;;;;;7400325;19;20133;-90
2023/04/01 16:30:35;;;;;;;0.20;0.20;;;;;;;;;;7418975;19;20157;-91
2023/04/01 16:33:28;;;;;;;0.50;0.50;;;;;;;;;;7426897;19;20181;-90
2023/04/01 16:36:05;;;;;;;0.30;0.30;;;;;;;;;;7416585;19;20137;-90
2023/04/01 16:38:46;;;;;;;0.30;0.30;;;;;;;;;;7399685;19;20144;-91
2023/04/01 16:41:19;;;;;;;0.40;0.40;;;;;;;;;;7397558;19;20184;-88
2023/04/01 16:43:51;;;;;;;0.30;0.30;;;;;;;;;;7402442;19;20492;-91
2023/04/01 16:46:32;;;;;;;0.30;0.30;;;;;;;;;;7396790;19;20169;-91
2023/04/01 16:49:01;;;;;;;0.40;0.40;;;;;;;;;;7394489;19;20510;-92
2023/04/01 16:51:40;;;;;;;0.20;0.20;;;;;;;;;;7397163;19;20207;-90
2023/04/01 16:54:36;;;;;;;1.03;0.60;;;;;;;;;;7394811;19;20141;-92
2023/04/01 16:57:16;;;;;;;0.30;0.30;;;;;;;;;;7396443;19;20145;-90
2023/04/01 17:00:21;;;;;;;0.40;0.40;;;;;;;;;;7393707;19;20170;-92
2023/04/01 17:02:58;;;;;;;0.20;0.20;;;;;;;;;;7396262;19;20493;-91
2023/04/01 17:05:48;;;;;;;1.20;0.57;;;;;;;;;;7392504;19;20136;-91
2023/04/01 17:08:28;;;;;;;0.30;0.30;;;;;;;;;;7398988;19;20165;-92
2023/04/01 17:11:28;;;;;;;0.40;0.40;;;;;;;;;;7396018;19;20176;-91
2023/04/01 17:14:17;;;;;;;0.30;0.30;;;;;;;;;;7394461;19;20466;-92
2023/04/01 17:16:54;;;;;;;0.20;0.20;;;;;;;;;;7396922;19;20145;-91
2023/04/01 17:19:42;;;;;;;0.30;0.30;;;;;;;;;;7396492;19;20152;-91
2023/04/01 17:22:27;;;;;;;0.20;0.20;;;;;;;;;;7395364;19;20137;-88
2023/04/01 17:25:07;;;;;;;0.30;0.30;;;;;;;;;;7394422;19;20140;-91
2023/04/01 17:27:36;;;;;;;0.40;0.40;;;;;;;;;;7397337;19;20141;-93
2023/04/01 17:30:15;;;;;;;0.30;0.30;;;;;;;;;;7394915;19;20148;-91
2023/04/01 17:33:03;;;;;;;0.20;0.20;;;;;;;;;;7393784;19;20191;-91
2023/04/01 17:35:39;;;;;;;0.40;0.40;;;;;;;;;;7395767;19;20141;-92
2023/04/01 17:38:15;;;;;;;0.30;0.30;;;;;;;;;;7395205;19;20147;-92
2023/04/01 17:40:53;;;;;;;1.13;0.40;;;;;;;;;;7396699;19;20144;-91
2023/04/01 17:43:29;;;;;;;0.30;0.30;;;;;;;;;;7398790;19;20136;-92
2023/04/01 17:46:00;;;;;;;0.37;0.37;;;;;;;;;;7394361;19;20605;-92
2023/04/01 17:48:36;;;;;;;0.30;0.30;;;;;;;;;;7394995;19;20593;-90
2023/04/01 17:51:27;;;;;;;0.30;0.30;;;;;;;;;;7394200;19;20565;-92
2023/04/01 17:54:06;;;;;;;0.27;0.27;;;;;;;;;;7393699;19;20590;-91
2023/04/01 17:56:45;;;;;;;0.30;0.30;;;;;;;;;;7395454;19;20157;-90
2023/04/01 17:59:30;;;;;;;0.30;0.30;;;;;;;;;;7393844;19;20141;-90
2023/04/01 18:02:08;;;;;;;0.20;0.20;;;;;;;;;;7395565;19;20144;-90
2023/04/01 18:05:21;;;;;;;0.37;0.37;;;;;;;;;;7392448;19;20168;-92
2023/04/01 18:08:04;;;;;;;0.40;0.40;;;;;;;;;;7393045;19;20160;-90
2023/04/01 18:10:51;;;;;;;0.40;0.40;;;;;;;;;;7391631;19;20164;-91
2023/04/01 18:13:30;;;;;;;0.30;0.30;;;;;;;;;;7392907;19;20140;-91
2023/04/01 18:16:15;;;;;;;0.30;0.30;;;;;;;;;;7394015;19;20157;-90
2023/04/01 18:19:09;;;;;;;0.20;0.20;;;;;;;;;;7391967;19;20144;-92
2023/04/01 18:21:47;;;;;;;0.20;0.20;;;;;;;;;;7392876;19;20168;-90
2023/04/01 18:24:43;;;;;;;0.27;0.27;;;;;;;;;;7387160;19;20515;-92
2023/04/01 18:27:17;;;;;;;0.20;0.20;;;;;;;;;;7386681;19;20560;-92
2023/04/01 18:29:56;;;;;;;0.30;0.30;;;;;;;;;;7389156;19;20164;-91
2023/04/01 18:32:38;;;;;;;0.33;0.33;;;;;;;;;;7388029;19;20546;-92
2023/04/01 18:35:25;;;;;;;0.20;0.20;;;;;;;;;;7390134;19;20605;-91
2023/04/01 18:38:12;;;;;;;0.30;0.30;;;;;;;;;;7389901;19;20133;-91
2023/04/01 18:41:10;;;;;;;0.30;0.30;;;;;;;;;;7390479;19;20201;-91
2023/04/01 18:43:40;;;;;;;0.20;0.20;;;;;;;;;;7389611;19;20144;-92
2023/04/01 18:46:44;;;;;;;0.30;0.30;;;;;;;;;;7391495;19;20496;-91
2023/04/01 18:49:22;;;;;;;0.20;0.20;;;;;;;;;;7381542;19;20136;-91
2023/04/01 18:52:31;;;;;;;0.30;0.30;;;;;;;;;;7373581;19;20138;-91
2023/04/01 18:55:01;;;;;;;0.30;0.30;;;;;;;;;;7387824;19;20125;-91
2023/04/01 18:57:50;;;;;;;0.20;0.20;;;;;;;;;;7389088;19;20883;-90
2023/04/01 19:00:24;;;;;;;0.30;0.30;;;;;;;;;;7389579;19;20164;-91
2023/04/01 19:02:57;;;;;;;0.30;0.30;;;;;;;;;;7391279;19;20156;-90
2023/04/01 19:05:31;;;;;;;0.30;0.30;;;;;;;;;;7391795;19;20141;-92
2023/04/01 19:08:33;;;;;;;0.30;0.30;;;;;;;;;;7391017;19;20164;-91
2023/04/01 19:11:20;;;;;;;0.40;0.40;;;;;;;;;;7384334;19;20156;-90
2023/04/01 19:14:20;;;;;;;1.70;0.87;;;;;;;;;;7392255;19;20133;-91
2023/04/01 19:17:36;;;;;;;0.23;0.23;;;;;;;;;;7394261;19;20161;-91
2023/04/01 19:20:35;;;;;;;0.30;0.30;;;;;;;;;;7392267;19;20527;-92
2023/04/01 19:23:07;;;;;;;0.30;0.30;;;;;;;;;;7394663;19;20159;-91
2023/04/01 19:25:47;;;;;;;0.30;0.30;;;;;;;;;;7388545;19;20567;-91
2023/04/01 19:28:33;;;;;;;0.30;0.30;;;;;;;;;;7390751;19;20613;-93
2023/04/01 19:31:17;;;;;;;0.30;0.30;;;;;;;;;;7391189;19;20145;-92
2023/04/01 19:34:02;;;;;;;0.30;0.30;;;;;;;;;;7392627;19;20152;-92
2023/04/01 19:36:55;;;;;;;0.20;0.20;;;;;;;;;;7393873;19;20133;-92
2023/04/01 19:39:25;;;;;;;0.20;0.20;;;;;;;;;;7391537;19;20169;-92
2023/04/01 19:42:17;;;;;;;0.30;0.30;;;;;;;;;;7391445;19;20160;-93
2023/04/01 19:44:54;;;;;;;0.20;0.20;;;;;;;;;;7393557;19;20133;-92
2023/04/01 19:47:41;;;;;;;0.60;0.60;;;;;;;;;;7387339;19;20141;-92
2023/04/01 19:50:25;;;;;;;0.83;0.83;;;;;;;;;;7383334;19;20173;-92
2023/04/01 19:52:55;;;;;;;0.20;0.20;;;;;;;;;;7385259;19;20144;-92
2023/04/01 19:55:50;;;;;;;0.20;0.20;;;;;;;;;;7387515;19;20140;-92
2023/04/01 19:58:33;;;;;;;0.30;0.30;;;;;;;;;;7393419;19;20141;-94
2023/04/01 20:01:00;;;;;;;0.27;0.27;;;;;;;;;;7420447;19;20157;-94
2023/04/01 20:03:50;;;;;;;0.20;0.20;;;;;;;;;;7427702;19;20145;-94
2023/04/01 20:06:45;;;;;;;0.33;0.33;;;;;;;;;;7403451;19;20637;-94
2023/04/01 20:09:37;;;;;;;0.30;0.30;;;;;;;;;;7398416;19;20137;-94
2023/04/01 20:12:29;;;;;;;0.30;0.30;;;;;;;;;;7399784;19;20148;-93
2023/04/01 20:15:01;;;;;;;0.30;0.30;;;;;;;;;;7394717;19;20145;-91
2023/04/01 20:17:31;;;;;;;0.20;0.20;;;;;;;;;;7396458;19;20633;-92
2023/04/01 20:20:10;;;;;;;0.30;0.30;;;;;;;;;;7395647;19;20171;-93
2023/04/01 20:22:43;;;;;;;0.47;0.47;;;;;;;;;;7395909;19;20133;-93
2023/04/01 20:25:17;;;;;;;0.30;0.30;;;;;;;;;;7398197;19;20137;-93
2023/04/01 20:27:48;;;;;;;0.30;0.30;;;;;;;;;;7396071;19;20496;-93
2023/04/01 20:30:36;;;;;;;0.80;0.80;;;;;;;;;;7393179;19;20181;-92
2023/04/01 20:33:34;;;;;;;0.30;0.30;;;;;;;;;;7395394;19;20140;-92
2023/04/01 20:36:13;;;;;;;0.30;0.30;;;;;;;;;;7393783;19;20160;-92
2023/04/01 20:38:52;;;;;;;0.40;0.40;;;;;;;;;;7394583;19;20166;-93
2023/04/01 20:41:27;;;;;;;0.20;0.20;;;;;;;;;;7396357;19;20161;-92
2023/04/01 20:44:43;;;;;;;0.20;0.20;;;;;;;;;;7395046;19;20132;-92
2023/04/01 20:47:22;;;;;;;0.30;0.30;;;;;;;;;;7394694;19;20157;-92
2023/04/01 20:50:06;;;;;;;0.30;0.30;;;;;;;;;;7394803;19;20156;-93
2023/04/01 20:52:40;;;;;;;0.30;0.30;;;;;;;;;;7393415;19;20181;-92
2023/04/01 20:55:19;;;;;;;0.30;0.30;;;;;;;;;;7396889;19;20140;-93
2023/04/01 20:58:05;;;;;;;0.20;0.20;;;;;;;;;;7396629;19;20136;-92
2023/04/01 21:00:52;;;;;;;0.30;0.30;;;;;;;;;;7394758;19;20196;-91
2023/04/01 21:03:51;;;;;;;0.30;0.30;;;;;;;;;;7394484;19;20156;-91
2023/04/01 21:06:30;;;;;;;0.30;0.30;;;;;;;;;;7392643;19;20149;-92
2023/04/01 21:09:21;;;;;;;0.20;0.20;;;;;;;;;;7392730;19;20141;-92
2023/04/01 21:12:10;;;;;;;0.20;0.20;;;;;;;;;;7396626;19;20165;-92
2023/04/01 21:14:40;;;;;;;0.30;0.30;;;;;;;;;;7395529;19;20261;-93
2023/04/01 21:17:31;;;;;;;0.20;0.20;;;;;;;;;;7393038;19;20141;-92
2023/04/01 21:20:35;;;;;;;0.30;0.30;;;;;;;;;;7397471;19;20166;-90
2023/04/01 21:23:31;;;;;;;0.40;0.40;;;;;;;;;;7394405;19;20144;-92
2023/04/01 21:26:04;;;;;;;0.20;0.20;;;;;;;;;;7396055;19;20256;-93
2023/04/01 21:28:46;;;;;;;0.30;0.30;;;;;;;;;;7394673;19;20161;-91
2023/04/01 21:31:35;;;;;;;0.30;0.30;;;;;;;;;;7395561;19;20145;-92
2023/04/01 21:34:34;;;;;;;0.20;0.20;;;;;;;;;;7397767;19;20140;-91
2023/04/01 21:37:30;;;;;;;0.20;0.20;;;;;;;;;;7397478;19;20141;-93
2023/04/01 21:39:57;;;;;;;0.30;0.30;;;;;;;;;;7392389;19;20176;-92
2023/04/01 21:42:33;;;;;;;0.30;0.30;;;;;;;;;;7390168;19;20141;-93
2023/04/01 21:45:32;;;;;;;0.20;0.20;;;;;;;;;;7401454;19;20173;-93
